Locust Grove, Georgia
Current Conditions -  °F | °C
As of 11:15 PM on Tuesday 25 Nov 2014 (Local Time) from KCVC Reporting Station
Light Rain Light Rain  
Wind Chill: 48°   Ceiling: 7000
Heat Index: 48°   Visibility: 7mi
Dew Point: 46°   Wind: 0mph
Humidity: 93%   Direction: NA
Pressure: 30.03"   Gusts: NA
Location:  33.35°N, 84.11°W
Report Text: KCVC 260415Z AUTO 00000KT 7SM -RA OVC070 09/08 A3003 RMK AO2
Loading
Personal Weather Stations






























Interactive Weather Map New forecast layout! Learn more

10-Day Weather Forecast

Advertisements
Track Severe Weather on mobile